Time;durP1;ratioP1;P1;durP2;ratioP2;P2;SDS_P1;SDS_P2;PMS_P1;PMS_P2;Temp;Humidity;BMP_temperature;BMP_pressure;BME280_temperature;BME280_humidity;BME280_pressure;Samples;Min_cycle;Max_cycle;Signal;HPM_P1;HPM_P2
2021/12/25 00:01:20;;;;;;;61.28;33.42;;;;;;;2.20;100.00;100122.69;5020786;28;20120;-87
2021/12/25 00:03:48;;;;;;;66.50;32.30;;;;;;;2.12;100.00;100133.91;5014261;28;20048;-86
2021/12/25 00:06:13;;;;;;;58.92;31.48;;;;;;;2.08;100.00;100127.19;5025584;28;20048;-86
2021/12/25 00:08:39;;;;;;;60.60;30.73;;;;;;;1.98;100.00;100139.50;5008736;28;20037;-85
2021/12/25 00:11:07;;;;;;;61.45;31.45;;;;;;;2.01;100.00;100141.88;5006385;28;20098;-87
2021/12/25 00:13:33;;;;;;;55.17;29.02;;;;;;;1.92;100.00;100146.13;5026221;28;20044;-87
2021/12/25 00:15:58;;;;;;;49.75;26.83;;;;;;;1.86;100.00;100137.84;5016697;28;20046;-86
2021/12/25 00:18:24;;;;;;;52.42;27.02;;;;;;;1.76;100.00;100151.81;5022007;28;20103;-86
2021/12/25 00:20:50;;;;;;;51.33;28.60;;;;;;;1.75;100.00;100147.47;5019604;28;20045;-86
2021/12/25 00:23:18;;;;;;;56.97;32.13;;;;;;;1.72;100.00;100153.00;5024743;28;20358;-86
2021/12/25 00:25:49;;;;;;;52.97;30.27;;;;;;;1.70;100.00;100156.78;5021330;28;20033;-85
2021/12/25 00:30:59;;;;;;;51.58;27.42;;;;;;;1.63;100.00;100168.78;5023359;28;20398;-86
2021/12/25 00:36:17;;;;;;;61.42;34.10;;;;;;;1.68;100.00;100162.19;5023646;28;20052;-85
2021/12/25 00:38:43;;;;;;;52.63;29.95;;;;;;;1.61;100.00;100168.91;5026052;28;20065;-87
2021/12/25 00:41:10;;;;;;;47.28;25.15;;;;;;;1.55;100.00;100172.91;5023762;28;20129;-85
2021/12/25 00:43:36;;;;;;;53.50;30.15;;;;;;;1.57;100.00;100164.84;4999317;28;20040;-86
2021/12/25 00:46:02;;;;;;;50.17;26.90;;;;;;;1.48;100.00;100166.41;5003736;28;20046;-86
2021/12/25 00:48:27;;;;;;;49.95;29.08;;;;;;;1.50;100.00;100172.41;5023605;28;20045;-86
2021/12/25 00:50:54;;;;;;;54.83;32.60;;;;;;;1.50;100.00;100164.50;5007201;28;20748;-85
2021/12/25 00:53:19;;;;;;;49.13;27.33;;;;;;;1.47;100.00;100172.66;5026093;28;20042;-88
2021/12/25 00:55:45;;;;;;;53.72;30.70;;;;;;;1.48;100.00;100173.50;5026114;28;20052;-85
2021/12/25 00:58:11;;;;;;;51.92;28.77;;;;;;;1.46;100.00;100173.59;5024988;28;20033;-86
2021/12/25 01:00:37;;;;;;;47.97;28.65;;;;;;;1.40;100.00;100182.03;5026137;28;20141;-85
2021/12/25 01:03:02;;;;;;;48.67;26.65;;;;;;;1.43;100.00;100179.13;5024115;28;20037;-86
2021/12/25 01:05:28;;;;;;;45.83;27.60;;;;;;;1.38;100.00;100180.47;5027743;28;20385;-85
2021/12/25 01:07:53;;;;;;;50.50;31.17;;;;;;;1.37;100.00;100182.25;5024662;28;20049;-85
2021/12/25 01:10:20;;;;;;;42.92;24.88;;;;;;;1.32;100.00;100180.00;5024470;28;20057;-86
2021/12/25 01:15:23;;;;;;;46.15;27.95;;;;;;;1.36;100.00;100188.53;5022843;28;20124;-84
2021/12/25 01:23:33;;;;;;;54.22;31.65;;;;;;;1.39;100.00;100187.44;5016273;28;20034;-86
2021/12/25 01:31:15;;;;;;;45.70;27.05;;;;;;;1.30;100.00;100191.66;5025449;28;20482;-85
2021/12/25 01:36:48;;;;;;;50.80;27.52;;;;;;;1.30;100.00;100189.00;5026091;28;20102;-85
2021/12/25 01:39:27;;;;;;;54.90;28.48;;;;;;;1.31;100.00;100191.53;5026664;28;20049;-86
2021/12/25 01:49:54;;;;;;;48.30;27.92;;;;;;;1.29;100.00;100197.88;5013571;28;20034;-86
2021/12/25 01:52:26;;;;;;;52.13;28.70;;;;;;;1.24;100.00;100202.72;5032832;28;20036;-86
2021/12/25 01:54:52;;;;;;;42.40;22.10;;;;;;;1.16;100.00;100198.00;5048111;28;20124;-85
2021/12/25 01:57:17;;;;;;;44.22;27.00;;;;;;;1.15;100.00;100201.59;5023486;28;20044;-85
2021/12/25 01:59:43;;;;;;;42.70;25.33;;;;;;;1.16;100.00;100205.09;5018511;28;20057;-86
2021/12/25 02:02:08;;;;;;;43.03;23.55;;;;;;;1.12;100.00;100202.69;5039687;28;20037;-86
2021/12/25 02:04:33;;;;;;;44.28;24.70;;;;;;;1.09;100.00;100202.94;5014522;28;20388;-86
2021/12/25 02:06:59;;;;;;;41.97;21.63;;;;;;;1.02;100.00;100204.34;5030442;28;20553;-86
2021/12/25 02:09:24;;;;;;;41.67;25.13;;;;;;;1.07;100.00;100202.19;5030447;28;20040;-86
2021/12/25 02:11:51;;;;;;;37.00;19.85;;;;;;;0.99;100.00;100204.56;5023183;28;20049;-87
2021/12/25 02:14:16;;;;;;;38.25;24.15;;;;;;;0.98;100.00;100210.84;5008949;28;20048;-86
2021/12/25 02:17:13;;;;;;;37.90;23.13;;;;;;;0.89;100.00;100206.22;5024897;28;20061;-85
2021/12/25 02:19:47;;;;;;;40.80;24.50;;;;;;;0.99;100.00;100212.50;5021773;28;20045;-86
2021/12/25 02:22:13;;;;;;;40.33;24.00;;;;;;;0.95;100.00;100210.19;5029314;28;20041;-86
2021/12/25 02:24:39;;;;;;;40.30;23.65;;;;;;;0.84;100.00;100209.22;5006358;28;20437;-85
2021/12/25 02:27:06;;;;;;;40.72;23.83;;;;;;;0.84;100.00;100209.22;5019296;28;20034;-85
2021/12/25 02:29:32;;;;;;;37.67;22.95;;;;;;;0.82;100.00;100211.13;5019781;28;20053;-86
2021/12/25 02:32:00;;;;;;;42.22;23.52;;;;;;;0.79;100.00;100208.72;5021117;28;20041;-86
2021/12/25 02:34:26;;;;;;;30.65;19.70;;;;;;;0.81;100.00;100206.00;5004704;28;20303;-86
2021/12/25 02:36:52;;;;;;;40.45;22.52;;;;;;;0.80;100.00;100206.94;5034491;28;20042;-86
2021/12/25 02:39:17;;;;;;;38.80;22.45;;;;;;;0.77;100.00;100196.59;5020428;28;20045;-85
2021/12/25 02:41:43;;;;;;;37.22;20.02;;;;;;;0.74;100.00;100202.09;5025983;28;20297;-83
2021/12/25 02:44:09;;;;;;;41.45;23.20;;;;;;;0.73;100.00;100185.44;5023281;28;20390;-85
2021/12/25 02:46:35;;;;;;;36.35;22.02;;;;;;;0.67;100.00;100186.72;5026466;28;20037;-85
2021/12/25 02:49:00;;;;;;;33.45;20.13;;;;;;;0.63;100.00;100185.28;5027584;28;20052;-84
2021/12/25 02:51:26;;;;;;;27.85;16.15;;;;;;;0.55;100.00;100186.81;5009852;28;20044;-83
2021/12/25 02:53:51;;;;;;;30.10;18.25;;;;;;;0.49;100.00;100193.41;5025581;28;20052;-84
2021/12/25 02:56:17;;;;;;;27.20;15.25;;;;;;;0.50;100.00;100200.34;5024440;28;20049;-85
2021/12/25 02:58:42;;;;;;;27.27;16.80;;;;;;;0.50;100.00;100200.34;5021502;28;20041;-84
2021/12/25 03:01:15;;;;;;;30.63;17.48;;;;;;;0.47;100.00;100195.31;5005548;28;20482;-85
2021/12/25 03:03:42;;;;;;;29.33;18.35;;;;;;;0.55;100.00;100197.38;5021413;28;20053;-83
2021/12/25 03:06:09;;;;;;;27.75;16.23;;;;;;;0.53;100.00;100200.13;5022627;28;20137;-85
2021/12/25 03:08:36;;;;;;;28.73;17.85;;;;;;;0.51;100.00;100199.38;5001060;28;20094;-85
2021/12/25 03:11:06;;;;;;;29.50;17.75;;;;;;;0.53;100.00;100199.28;5042505;28;20057;-84
2021/12/25 03:14:32;;;;;;;28.40;15.13;;;;;;;0.49;100.00;100211.00;5045054;28;20048;-84
2021/12/25 03:16:20;;;;;;;21.80;13.07;;;;;;;0.41;100.00;100215.06;5026186;28;20625;-84
2021/12/25 03:18:49;;;;;;;27.70;16.88;;;;;;;0.45;100.00;100210.41;5020728;28;20144;-84
2021/12/25 03:21:17;;;;;;;22.73;16.00;;;;;;;0.45;100.00;100215.69;5023527;28;20115;-83
2021/12/25 03:23:43;;;;;;;25.77;16.98;;;;;;;0.45;100.00;100219.16;5023945;28;20057;-84
2021/12/25 03:26:10;;;;;;;23.63;15.38;;;;;;;0.46;100.00;100217.34;5021448;28;20420;-84
2021/12/25 03:28:39;;;;;;;22.90;11.90;;;;;;;0.37;100.00;100223.31;5019982;28;20037;-84
2021/12/25 03:31:13;;;;;;;28.27;15.43;;;;;;;0.38;100.00;100211.84;5003984;28;20056;-84
2021/12/25 03:33:38;;;;;;;19.85;13.15;;;;;;;0.28;100.00;100216.09;5018189;28;20045;-83
2021/12/25 03:36:04;;;;;;;18.92;13.50;;;;;;;0.25;100.00;100211.88;5030977;28;20515;-84
2021/12/25 03:38:30;;;;;;;22.23;14.23;;;;;;;0.28;100.00;100211.66;5024749;28;20052;-84
2021/12/25 03:40:56;;;;;;;17.98;10.98;;;;;;;0.18;100.00;100211.50;5029842;28;20087;-85
2021/12/25 03:43:22;;;;;;;20.38;12.50;;;;;;;0.25;100.00;100203.13;5022644;28;20072;-84
2021/12/25 03:45:49;;;;;;;17.58;10.77;;;;;;;0.22;100.00;100212.94;5020963;28;21584;-84
2021/12/25 03:48:30;;;;;;;14.63;9.27;;;;;;;0.16;100.00;100212.56;5007493;28;20501;-84
2021/12/25 03:59:04;;;;;;;10.95;7.28;;;;;;;0.02;100.00;100205.63;5018244;28;20621;-85
2021/12/25 04:06:53;;;;;;;9.75;5.38;;;;;;;-0.08;100.00;100225.72;5021668;28;20048;-84
2021/12/25 04:09:25;;;;;;;6.10;4.18;;;;;;;-0.12;100.00;100234.78;5004547;28;20053;-84
2021/12/25 04:11:51;;;;;;;10.60;4.35;;;;;;;-0.22;100.00;100229.34;5008789;28;20042;-85
2021/12/25 04:14:17;;;;;;;5.38;4.10;;;;;;;-0.22;100.00;100245.16;5021657;28;20048;-84
2021/12/25 04:16:42;;;;;;;6.18;4.20;;;;;;;-0.28;100.00;100235.91;5021560;28;20042;-84
2021/12/25 04:19:08;;;;;;;7.05;3.42;;;;;;;-0.26;100.00;100227.84;5018997;28;20245;-84
2021/12/25 04:21:35;;;;;;;6.60;3.30;;;;;;;-0.36;100.00;100225.03;5024483;28;20034;-85
2021/12/25 04:24:01;;;;;;;8.73;4.10;;;;;;;-0.35;100.00;100212.69;5021372;28;20041;-84
2021/12/25 04:26:27;;;;;;;7.93;3.47;;;;;;;-0.42;100.00;100222.84;5022796;28;20049;-84
2021/12/25 04:31:33;;;;;;;5.93;3.63;;;;;;;-0.49;100.00;100217.16;5029396;28;20049;-84
2021/12/25 04:48:37;;;;;;;5.95;4.18;;;;;;;-0.63;100.00;100240.13;5012276;28;20068;-84
2021/12/25 05:04:12;;;;;;;8.70;5.40;;;;;;;-0.83;100.00;100271.34;5021840;28;22302;-84
2021/12/25 05:06:38;;;;;;;6.88;5.43;;;;;;;-0.85;100.00;100262.69;5025711;28;20518;-83
2021/12/25 05:09:04;;;;;;;10.68;5.65;;;;;;;-0.91;100.00;100260.47;5022814;28;20050;-83
2021/12/25 05:11:29;;;;;;;9.85;5.10;;;;;;;-0.97;100.00;100276.69;5027986;28;20052;-84
2021/12/25 05:13:54;;;;;;;6.80;5.28;;;;;;;-0.83;100.00;100287.16;5010295;28;20587;-83
2021/12/25 05:16:21;;;;;;;13.13;5.15;;;;;;;-0.89;100.00;100291.97;5026925;28;20057;-83
2021/12/25 05:18:47;;;;;;;12.43;4.93;;;;;;;-0.93;100.00;100286.91;5022982;28;20049;-84
2021/12/25 05:21:14;;;;;;;10.45;5.18;;;;;;;-0.91;100.00;100282.41;5026533;28;20041;-83
2021/12/25 05:23:39;;;;;;;6.90;5.03;;;;;;;-0.92;100.00;100283.34;5026393;28;20046;-85
2021/12/25 05:26:05;;;;;;;7.03;5.03;;;;;;;-0.91;100.00;100295.56;5039235;28;20103;-84
2021/12/25 05:28:39;;;;;;;9.07;5.93;;;;;;;-0.83;100.00;100297.69;5025032;28;20394;-83
2021/12/25 05:31:06;;;;;;;6.57;4.53;;;;;;;-0.92;100.00;100293.06;5024325;28;20493;-84
2021/12/25 05:33:31;;;;;;;7.32;4.85;;;;;;;-0.96;100.00;100294.19;5011863;28;20074;-84
2021/12/25 05:35:58;;;;;;;7.13;4.82;;;;;;;-0.99;100.00;100308.41;5025001;28;20071;-83
2021/12/25 05:38:24;;;;;;;7.82;5.30;;;;;;;-1.00;100.00;100311.16;5009809;28;20049;-84
2021/12/25 05:40:49;;;;;;;7.95;5.60;;;;;;;-0.99;100.00;100316.31;5024982;28;20041;-84
2021/12/25 05:43:16;;;;;;;8.40;5.65;;;;;;;-0.91;100.00;100324.53;5026470;28;20151;-84
2021/12/25 05:45:42;;;;;;;7.25;4.97;;;;;;;-0.91;100.00;100326.34;5022632;28;20042;-84
2021/12/25 05:48:08;;;;;;;7.43;5.10;;;;;;;-0.95;100.00;100312.53;5024323;28;20041;-83
2021/12/25 05:50:34;;;;;;;10.48;5.43;;;;;;;-0.98;100.00;100315.38;5024370;28;20425;-85
2021/12/25 05:52:59;;;;;;;8.65;5.75;;;;;;;-0.95;100.00;100322.19;5015924;28;20445;-84
2021/12/25 05:55:25;;;;;;;8.45;6.65;;;;;;;-0.87;100.00;100319.06;5010837;28;20124;-84
2021/12/25 05:57:52;;;;;;;8.10;5.85;;;;;;;-0.91;100.00;100332.44;5014364;28;20079;-84
2021/12/25 06:00:18;;;;;;;9.45;6.30;;;;;;;-0.89;100.00;100327.09;5019070;28;20056;-84
2021/12/25 06:02:44;;;;;;;7.72;5.90;;;;;;;-0.90;100.00;100328.03;5028072;28;20152;-84
2021/12/25 06:05:10;;;;;;;7.28;5.70;;;;;;;-0.93;100.00;100333.50;5031139;28;21557;-83
2021/12/25 06:07:35;;;;;;;8.93;5.28;;;;;;;-0.99;100.00;100339.16;5030753;28;20106;-83
2021/12/25 06:10:03;;;;;;;8.68;5.63;;;;;;;-0.99;100.00;100333.91;5027384;28;20521;-83
2021/12/25 06:12:28;;;;;;;7.80;5.25;;;;;;;-1.06;100.00;100348.44;5016633;28;20547;-83
2021/12/25 06:14:54;;;;;;;7.72;5.82;;;;;;;-1.04;100.00;100334.19;5027908;28;20053;-83
2021/12/25 06:17:20;;;;;;;6.43;5.00;;;;;;;-1.04;100.00;100349.16;5049750;28;20073;-84
2021/12/25 06:19:46;;;;;;;7.82;6.30;;;;;;;-1.08;100.00;100340.63;5047381;28;20064;-84
2021/12/25 06:22:11;;;;;;;9.07;6.18;;;;;;;-1.08;100.00;100351.16;5016514;28;20048;-84
2021/12/25 06:24:40;;;;;;;10.73;6.50;;;;;;;-1.13;100.00;100348.81;5027809;28;20033;-85
2021/12/25 06:27:05;;;;;;;7.13;5.15;;;;;;;-1.19;100.00;100359.75;5028300;28;20373;-85
2021/12/25 06:29:30;;;;;;;8.15;5.38;;;;;;;-1.24;100.00;100361.81;5011874;28;20068;-83
2021/12/25 06:31:57;;;;;;;8.40;6.88;;;;;;;-1.17;100.00;100371.03;5027520;28;20045;-85
2021/12/25 06:34:22;;;;;;;6.75;4.78;;;;;;;-1.25;100.00;100375.94;5024888;28;20136;-83
2021/12/25 06:36:48;;;;;;;7.90;6.00;;;;;;;-1.24;100.00;100372.34;5029266;28;20095;-83
2021/12/25 06:39:15;;;;;;;8.82;5.85;;;;;;;-1.21;100.00;100376.59;5027217;28;20073;-82
2021/12/25 06:41:42;;;;;;;9.80;5.68;;;;;;;-1.30;100.00;100378.03;5029871;28;20436;-83
2021/12/25 06:44:07;;;;;;;8.18;6.65;;;;;;;-1.24;100.00;100372.34;5022277;28;20151;-82
2021/12/25 06:46:32;;;;;;;8.90;5.43;;;;;;;-1.34;100.00;100376.53;5024772;28;20485;-83
2021/12/25 06:48:58;;;;;;;8.10;5.72;;;;;;;-1.29;100.00;100381.53;5020382;28;20038;-83
2021/12/25 06:51:23;;;;;;;8.20;6.35;;;;;;;-1.34;100.00;100376.53;5029686;28;20069;-82
2021/12/25 06:53:49;;;;;;;9.02;6.82;;;;;;;-1.36;100.00;100379.25;5038592;28;20041;-83
2021/12/25 06:56:15;;;;;;;10.65;6.80;;;;;;;-1.38;100.00;100388.22;5008637;28;20100;-84
2021/12/25 06:58:40;;;;;;;10.38;6.90;;;;;;;-1.36;100.00;100378.41;5023798;28;20068;-84
2021/12/25 07:01:06;;;;;;;8.38;6.45;;;;;;;-1.38;100.00;100382.97;5041182;28;20079;-83
2021/12/25 07:03:31;;;;;;;7.53;5.70;;;;;;;-1.46;100.00;100374.69;5029893;28;20065;-83
2021/12/25 07:05:57;;;;;;;8.48;5.65;;;;;;;-1.53;100.00;100382.13;5025513;28;20045;-83
2021/12/25 07:08:23;;;;;;;6.85;5.03;;;;;;;-1.58;100.00;100381.59;5040616;28;20049;-84
2021/12/25 07:10:48;;;;;;;5.82;4.65;;;;;;;-1.60;100.00;100391.34;5040966;28;20059;-85
2021/12/25 07:13:18;;;;;;;5.55;3.63;;;;;;;-1.66;100.00;100394.38;5027424;28;20072;-84
2021/12/25 07:15:44;;;;;;;6.72;4.18;;;;;;;-1.65;100.00;100390.78;5016776;28;20042;-84
2021/12/25 07:18:10;;;;;;;6.05;4.32;;;;;;;-1.73;100.00;100395.69;5029240;28;20045;-84
2021/12/25 07:20:35;;;;;;;5.18;4.15;;;;;;;-1.72;100.00;100392.97;5010681;28;20571;-84
2021/12/25 07:23:01;;;;;;;4.95;3.20;;;;;;;-1.72;100.00;100400.88;5017201;28;20075;-84
2021/12/25 07:25:26;;;;;;;4.93;3.35;;;;;;;-1.79;100.00;100401.31;5024724;28;20073;-83
2021/12/25 07:27:52;;;;;;;5.07;3.00;;;;;;;-1.86;100.00;100406.13;5022297;28;20049;-84
2021/12/25 07:30:18;;;;;;;5.18;2.88;;;;;;;-1.92;100.00;100402.09;5022689;28;20042;-84
2021/12/25 07:32:44;;;;;;;3.97;2.78;;;;;;;-1.92;100.00;100407.34;5022788;28;20072;-83
2021/12/25 07:35:10;;;;;;;5.75;3.65;;;;;;;-1.88;100.00;100392.22;5021847;28;20060;-84
2021/12/25 07:37:35;;;;;;;4.47;3.33;;;;;;;-1.88;100.00;100410.63;5024261;28;20065;-83
2021/12/25 07:40:04;;;;;;;6.10;3.63;;;;;;;-1.89;100.00;100407.16;5022894;28;20053;-83
2021/12/25 07:42:29;;;;;;;6.47;3.22;;;;;;;-2.04;100.00;100413.38;5021396;28;20030;-83
2021/12/25 07:45:02;;;;;;;3.50;2.83;;;;;;;-2.00;100.00;100411.38;5021345;28;20394;-82
2021/12/25 07:47:27;;;;;;;6.35;2.53;;;;;;;-1.94;100.00;100419.75;5027280;28;20065;-82
2021/12/25 07:49:56;;;;;;;6.53;2.72;;;;;;;-2.05;100.00;100422.16;5009221;28;20120;-82
2021/12/25 07:52:22;;;;;;;4.70;2.47;;;;;;;-2.06;100.00;100429.22;5041285;28;20037;-83
2021/12/25 07:54:47;;;;;;;3.15;1.70;;;;;;;-2.12;100.00;100431.38;5010627;28;20045;-83
2021/12/25 07:57:12;;;;;;;3.08;1.70;;;;;;;-2.14;100.00;100441.13;5043864;28;20041;-83
2021/12/25 07:59:38;;;;;;;2.95;1.73;;;;;;;-2.17;100.00;100443.94;5045721;28;20295;-83
2021/12/25 08:02:03;;;;;;;4.15;2.30;;;;;;;-2.11;100.00;100439.16;5009925;28;20676;-83
2021/12/25 08:04:28;;;;;;;4.18;1.60;;;;;;;-2.23;100.00;100437.28;5008845;28;20049;-83
2021/12/25 08:06:54;;;;;;;3.63;2.30;;;;;;;-2.19;100.00;100438.78;5003454;28;20034;-83
2021/12/25 08:09:28;;;;;;;4.60;1.85;;;;;;;-2.21;100.00;100432.78;5014009;28;20049;-83
2021/12/25 08:11:58;;;;;;;3.97;1.98;;;;;;;-2.18;100.00;100448.38;5025548;28;20041;-83
2021/12/25 08:14:25;;;;;;;4.35;1.75;;;;;;;-2.22;100.00;100448.63;5025792;28;20053;-83
2021/12/25 08:16:55;;;;;;;5.53;2.10;;;;;;;-2.26;100.00;100442.72;5025025;28;20041;-83
2021/12/25 08:19:22;;;;;;;4.20;1.83;;;;;;;-2.19;100.00;100451.91;4989859;28;20034;-83
2021/12/25 08:21:49;;;;;;;3.35;1.33;;;;;;;-2.34;100.00;100456.28;5026568;28;20044;-84
2021/12/25 08:24:15;;;;;;;2.53;1.70;;;;;;;-2.30;100.00;100449.09;5023883;28;20072;-82
2021/12/25 08:26:41;;;;;;;2.65;1.55;;;;;;;-2.30;100.00;100449.09;5028916;28;20068;-84
2021/12/25 08:29:07;;;;;;;2.28;1.45;;;;;;;-2.38;100.00;100456.59;5026947;28;20045;-83
2021/12/25 08:31:32;;;;;;;4.80;1.90;;;;;;;-2.30;100.00;100457.81;5031347;28;20383;-83
2021/12/25 08:33:57;;;;;;;2.72;1.42;;;;;;;-2.34;100.00;100460.72;5024773;28;20048;-83
2021/12/25 08:36:23;;;;;;;2.50;1.55;;;;;;;-2.34;100.00;100464.19;5027085;28;20034;-83
2021/12/25 08:38:48;;;;;;;4.25;1.40;;;;;;;-2.26;100.00;100463.75;5023658;28;20045;-83
2021/12/25 08:41:14;;;;;;;3.92;1.20;;;;;;;-2.35;100.00;100477.44;5017574;28;20390;-83
2021/12/25 08:43:46;;;;;;;2.70;1.38;;;;;;;-2.33;100.00;100473.78;5041140;28;20490;-83
2021/12/25 08:46:34;;;;;;;3.03;1.63;;;;;;;-2.29;100.00;100477.06;5015468;28;20123;-83
2021/12/25 08:49:00;;;;;;;4.45;1.50;;;;;;;-2.36;100.00;100476.59;5022938;28;20324;-83
2021/12/25 08:51:25;;;;;;;2.53;1.10;;;;;;;-2.39;100.00;100489.03;5026433;28;20129;-83
2021/12/25 08:53:50;;;;;;;2.58;1.17;;;;;;;-2.33;100.00;100486.91;5028099;28;20045;-84
2021/12/25 08:56:16;;;;;;;4.50;1.75;;;;;;;-2.40;100.00;100489.97;5026237;28;20942;-83
2021/12/25 08:58:41;;;;;;;1.95;1.13;;;;;;;-2.43;100.00;100498.03;4994031;28;20371;-83
2021/12/25 09:01:09;;;;;;;3.83;1.17;;;;;;;-2.39;100.00;100502.19;5024535;28;20451;-83
2021/12/25 09:03:34;;;;;;;5.50;1.58;;;;;;;-2.25;100.00;100499.59;5025466;28;20053;-82
2021/12/25 09:06:01;;;;;;;2.03;1.10;;;;;;;-2.27;100.00;100502.34;5023155;28;20072;-83
2021/12/25 09:08:30;;;;;;;2.42;1.30;;;;;;;-2.28;100.00;100508.50;5027320;28;20053;-83
2021/12/25 09:10:56;;;;;;;3.38;1.35;;;;;;;-2.23;100.00;100512.66;5021457;28;20049;-83
2021/12/25 09:13:22;;;;;;;2.88;1.40;;;;;;;-2.23;100.00;100518.75;5020387;28;20084;-83
2021/12/25 09:15:50;;;;;;;2.28;1.25;;;;;;;-2.10;100.00;100514.50;5025534;28;20045;-83
2021/12/25 09:18:16;;;;;;;2.20;1.17;;;;;;;-2.11;100.00;100517.19;5024536;28;20575;-82
2021/12/25 09:20:41;;;;;;;2.35;0.93;;;;;;;-2.07;100.00;100524.81;5026761;28;20075;-82
2021/12/25 09:23:07;;;;;;;3.80;1.02;;;;;;;-2.00;100.00;100527.09;5026008;28;20124;-83
2021/12/25 09:25:32;;;;;;;3.00;1.20;;;;;;;-1.98;99.52;100533.13;5027961;28;20039;-82
2021/12/25 09:27:58;;;;;;;2.42;1.10;;;;;;;-1.91;100.00;100526.53;5025716;28;20056;-82
2021/12/25 09:30:25;;;;;;;2.85;1.20;;;;;;;-1.90;100.00;100520.34;5021823;28;20049;-82
2021/12/25 09:32:50;;;;;;;3.80;0.90;;;;;;;-1.94;98.92;100519.69;5020407;28;20041;-82
2021/12/25 09:35:16;;;;;;;2.88;1.20;;;;;;;-1.93;97.90;100518.72;5020333;28;20056;-82
2021/12/25 09:37:41;;;;;;;3.15;1.20;;;;;;;-1.81;100.00;100519.81;5021344;28;20045;-82
2021/12/25 09:40:10;;;;;;;2.47;1.50;;;;;;;-1.83;97.88;100529.56;5026093;28;20435;-82
2021/12/25 09:42:38;;;;;;;3.33;1.30;;;;;;;-1.78;98.10;100524.00;5025149;28;20402;-82
2021/12/25 09:45:04;;;;;;;1.08;0.80;;;;;;;-1.80;96.35;100536.44;5026350;28;20049;-82
2021/12/25 09:47:29;;;;;;;1.85;0.73;;;;;;;-1.80;97.15;100544.34;5026427;28;20041;-82
2021/12/25 09:49:55;;;;;;;2.67;1.13;;;;;;;-1.75;96.98;100548.38;5021497;28;20121;-82
2021/12/25 09:52:23;;;;;;;2.22;1.20;;;;;;;-1.69;98.40;100544.53;5036797;28;20049;-82
2021/12/25 09:54:48;;;;;;;2.40;1.00;;;;;;;-1.74;94.60;100549.22;5032017;28;20040;-82
2021/12/25 09:57:14;;;;;;;2.38;1.52;;;;;;;-1.73;94.67;100549.13;5028398;28;20410;-82
2021/12/25 09:59:41;;;;;;;3.35;1.73;;;;;;;-1.72;93.52;100550.81;5031530;28;20103;-82
2021/12/25 10:02:12;;;;;;;2.92;1.35;;;;;;;-1.64;95.30;100559.13;5030023;28;20044;-82
2021/12/25 10:04:46;;;;;;;2.58;1.55;;;;;;;-1.62;94.58;100559.84;5007036;28;20491;-82
2021/12/25 10:07:15;;;;;;;3.65;1.60;;;;;;;-1.61;93.71;100566.81;5004418;28;20110;-82
2021/12/25 10:09:41;;;;;;;6.40;2.05;;;;;;;-1.56;94.70;100555.16;5029587;28;20045;-82
2021/12/25 10:12:15;;;;;;;2.40;1.60;;;;;;;-1.56;93.19;100560.44;5028612;28;20041;-83
2021/12/25 10:14:50;;;;;;;4.00;1.52;;;;;;;-1.45;93.64;100560.63;5013189;28;20041;-84
2021/12/25 10:17:18;;;;;;;6.45;1.70;;;;;;;-1.49;91.96;100572.28;5028790;28;20128;-83
2021/12/25 10:19:59;;;;;;;2.83;1.50;;;;;;;-1.41;96.32;100562.13;5030110;28;20075;-83
2021/12/25 10:22:25;;;;;;;2.70;1.30;;;;;;;-1.41;92.84;100568.25;5032269;28;20124;-82
2021/12/25 10:25:06;;;;;;;4.22;1.80;;;;;;;-1.51;89.20;100569.75;5013040;28;20124;-82
2021/12/25 10:27:31;;;;;;;4.75;1.85;;;;;;;-1.46;90.01;100572.09;4998269;28;20049;-84
2021/12/25 10:30:05;;;;;;;9.85;5.03;;;;;;;-1.43;90.64;100570.13;5031722;28;20091;-83
2021/12/25 10:32:37;;;;;;;3.67;1.42;;;;;;;-1.42;90.76;100557.81;5050683;28;20116;-83
2021/12/25 10:35:23;;;;;;;4.00;2.28;;;;;;;-1.39;89.26;100560.25;5038469;28;20493;-83
2021/12/25 10:37:50;;;;;;;3.33;1.45;;;;;;;-1.35;91.09;100556.50;5027528;28;21281;-84
2021/12/25 10:40:31;;;;;;;6.00;1.98;;;;;;;-1.25;92.53;100562.88;5033930;28;20394;-83
2021/12/25 10:43:00;;;;;;;2.88;1.33;;;;;;;-1.19;92.66;100554.59;5041788;28;20038;-84
2021/12/25 10:45:29;;;;;;;2.03;1.05;;;;;;;-1.26;89.68;100553.31;5045848;28;20045;-83
2021/12/25 10:48:09;;;;;;;2.40;1.30;;;;;;;-1.24;91.95;100551.41;5013734;28;20045;-83
2021/12/25 10:50:39;;;;;;;16.38;7.90;;;;;;;-1.24;89.50;100551.41;5009243;28;20044;-83
2021/12/25 10:53:20;;;;;;;;;;;;;;;-1.19;88.71;100538.81;5014083;28;20053;-83
2021/12/25 10:55:46;;;;;;;3.38;1.90;;;;;;;-1.24;90.73;100546.13;5016662;28;19979;-84
2021/12/25 10:58:23;;;;;;;3.25;1.23;;;;;;;-1.18;91.82;100540.50;5028606;28;20482;-83
2021/12/25 11:00:54;;;;;;;3.13;1.40;;;;;;;-1.10;90.99;100552.34;5045943;28;20041;-84
2021/12/25 11:03:37;;;;;;;3.20;1.48;;;;;;;-1.13;87.84;100546.31;5015366;28;20160;-84
2021/12/25 11:06:07;;;;;;;5.97;2.10;;;;;;;-1.06;88.50;100544.16;5011718;28;20106;-83
2021/12/25 11:08:34;;;;;;;2.67;1.60;;;;;;;-0.90;90.44;100533.50;5025952;28;20047;-83
2021/12/25 11:11:07;;;;;;;4.78;1.45;;;;;;;-0.99;87.10;100534.94;5021793;28;20041;-83
2021/12/25 11:13:39;;;;;;;5.40;1.75;;;;;;;-0.88;88.71;100534.25;5039917;28;20048;-83
2021/12/25 11:16:30;;;;;;;4.95;2.17;;;;;;;-0.86;86.15;100529.75;5019246;28;20160;-84
2021/12/25 11:19:12;;;;;;;3.83;1.90;;;;;;;-0.82;86.74;100533.84;5019273;28;20497;-83
2021/12/25 11:21:43;;;;;;;2.55;1.20;;;;;;;-0.70;87.95;100521.69;5016774;28;20049;-83
2021/12/25 11:24:13;;;;;;;4.88;2.08;;;;;;;-0.71;87.85;100525.28;5035172;28;20141;-83
2021/12/25 11:26:40;;;;;;;12.02;6.97;;;;;;;-0.58;89.94;100512.13;5024037;28;20494;-83
2021/12/25 11:29:08;;;;;;;10.80;5.68;;;;;;;-0.62;85.85;100526.47;5021224;28;20060;-84
2021/12/25 11:31:35;;;;;;;10.73;5.13;;;;;;;-0.58;85.88;100525.31;5022690;28;20057;-83
2021/12/25 11:34:06;;;;;;;11.88;6.78;;;;;;;-0.51;86.43;100531.91;5020984;28;20371;-83
2021/12/25 11:36:35;;;;;;;6.03;3.00;;;;;;;-0.46;86.38;100533.28;5019883;28;20486;-83
2021/12/25 11:39:02;;;;;;;8.88;4.55;;;;;;;-0.31;89.64;100530.59;5018633;28;20178;-84
2021/12/25 11:41:30;;;;;;;5.38;3.10;;;;;;;-0.36;85.81;100528.25;5022533;28;20041;-84
2021/12/25 11:43:56;;;;;;;6.10;2.67;;;;;;;-0.38;84.09;100530.13;5021645;28;20131;-83
2021/12/25 11:46:35;;;;;;;6.70;3.67;;;;;;;-0.22;87.09;100523.88;5020429;28;20053;-83
2021/12/25 11:49:09;;;;;;;3.42;1.70;;;;;;;-0.29;81.72;100518.13;5018254;28;20037;-83
2021/12/25 11:51:39;;;;;;;3.95;1.70;;;;;;;-0.27;84.24;100516.25;5017669;28;20394;-84
2021/12/25 11:54:27;;;;;;;;;;;;;;;-0.14;84.28;100524.22;5019228;28;20533;-84
2021/12/25 11:57:32;;;;;;;7.37;3.50;;;;;;;-0.17;86.52;100519.97;5022150;28;19931;-84
2021/12/25 11:59:49;;;;;;;3.85;1.33;;;;;;;-0.04;90.35;100520.84;5020708;28;20041;-83
2021/12/25 12:02:41;;;;;;;3.42;1.65;;;;;;;-0.10;80.53;100528.31;5004368;28;20565;-84
2021/12/25 12:05:25;;;;;;;4.90;2.00;;;;;;;0.04;84.51;100535.31;5024055;28;20553;-83
2021/12/25 12:08:06;;;;;;;4.20;2.33;;;;;;;0.01;80.83;100525.81;5021920;28;20061;-84
2021/12/25 12:10:43;;;;;;;5.00;1.83;;;;;;;0.12;83.35;100517.19;5017781;28;20049;-83
2021/12/25 12:13:21;;;;;;;5.93;2.42;;;;;;;0.07;80.88;100521.91;5024366;28;20037;-84
2021/12/25 12:15:49;;;;;;;7.57;3.30;;;;;;;0.13;81.34;100530.25;5001662;28;20050;-84
2021/12/25 12:18:24;;;;;;;4.40;1.50;;;;;;;0.06;79.19;100515.81;5015165;28;20161;-83
2021/12/25 12:20:51;;;;;;;3.20;1.20;;;;;;;0.04;78.14;100514.22;5019918;28;20334;-84
2021/12/25 12:23:52;;;;;;;4.88;2.53;;;;;;;0.11;78.72;100508.41;5035546;28;20041;-83
2021/12/25 12:27:02;;;;;;;1.33;0.90;;;;;;;0.13;79.03;100519.69;5020126;28;20099;-84
2021/12/25 12:29:45;;;;;;;3.42;1.88;;;;;;;0.11;78.80;100512.84;4997300;28;20045;-84
2021/12/25 12:32:19;;;;;;;2.55;1.10;;;;;;;0.17;78.23;100510.66;5014485;28;20042;-84
2021/12/25 12:34:51;;;;;;;4.82;0.90;;;;;;;0.35;82.28;100502.41;5014590;28;20449;-83
2021/12/25 12:37:16;;;;;;;3.67;1.70;;;;;;;0.33;79.57;100518.34;5014919;28;20049;-84